createdAt,value
2023-06-11T00:00:26.514Z,624.00
2023-06-11T00:01:26.569Z,623.00
2023-06-11T00:02:26.734Z,617.00
2023-06-11T00:03:26.820Z,620.00
2023-06-11T00:04:27.037Z,624.00
2023-06-11T00:05:26.706Z,623.00
2023-06-11T00:06:26.786Z,626.00
2023-06-11T00:07:26.769Z,625.00
2023-06-11T00:08:26.834Z,616.00
2023-06-11T00:09:26.896Z,619.00
2023-06-11T00:10:26.891Z,618.00
2023-06-11T00:11:26.903Z,616.00
2023-06-11T00:12:26.955Z,630.00
2023-06-11T00:13:27.020Z,622.00
2023-06-11T00:14:27.042Z,616.00
2023-06-11T00:15:27.102Z,608.00
2023-06-11T00:16:27.144Z,617.00
2023-06-11T00:17:27.196Z,620.00
2023-06-11T00:18:27.154Z,622.00
2023-06-11T00:19:27.200Z,626.00
2023-06-11T00:20:27.278Z,615.00
2023-06-11T00:21:27.287Z,613.00
2023-06-11T00:22:27.302Z,622.00
2023-06-11T00:23:27.301Z,617.00
2023-06-11T00:24:27.344Z,616.00
2023-06-11T00:25:27.376Z,614.00
2023-06-11T00:26:27.451Z,621.00
2023-06-11T00:27:27.426Z,628.00
2023-06-11T00:28:27.468Z,626.00
2023-06-11T00:29:27.465Z,622.00
2023-06-11T00:30:27.548Z,620.00
2023-06-11T00:31:27.573Z,627.00
2023-06-11T00:32:27.637Z,626.00
2023-06-11T00:33:27.636Z,627.00
2023-06-11T00:34:28.443Z,620.00
2023-06-11T00:35:27.677Z,627.00
2023-06-11T00:36:27.692Z,625.00
2023-06-11T00:37:27.737Z,620.00
2023-06-11T00:38:27.777Z,625.00
2023-06-11T00:39:27.814Z,617.00
2023-06-11T00:40:27.815Z,611.00
2023-06-11T00:41:27.976Z,609.00
2023-06-11T00:42:27.865Z,611.00
2023-06-11T00:43:27.909Z,611.00
2023-06-11T00:44:27.950Z,612.00
2023-06-11T00:45:27.999Z,613.00
2023-06-11T00:46:28.216Z,611.00
2023-06-11T00:47:28.146Z,607.00
2023-06-11T00:48:28.034Z,611.00
2023-06-11T00:49:28.144Z,611.00
2023-06-11T00:50:28.129Z,617.00
2023-06-11T00:51:28.164Z,614.00
2023-06-11T00:52:28.174Z,617.00
2023-06-11T00:53:28.210Z,608.00
2023-06-11T00:54:28.249Z,611.00
2023-06-11T00:55:28.273Z,611.00
2023-06-11T00:56:28.393Z,618.00
2023-06-11T00:57:28.354Z,602.00
2023-06-11T00:58:28.539Z,607.00
2023-06-11T00:59:28.391Z,609.00
2023-06-11T01:00:28.476Z,612.00
2023-06-11T01:01:28.627Z,612.00
2023-06-11T01:02:28.580Z,605.00
2023-06-11T01:03:28.980Z,605.00
2023-06-11T01:04:28.683Z,613.00
2023-06-11T01:05:28.762Z,613.00
2023-06-11T01:06:28.647Z,620.00
2023-06-11T01:07:28.667Z,614.00
2023-06-11T01:08:28.729Z,613.00
2023-06-11T01:09:28.741Z,607.00
2023-06-11T01:10:28.778Z,612.00
2023-06-11T01:11:28.772Z,605.00
2023-06-11T01:12:28.861Z,603.00
2023-06-11T01:13:28.866Z,598.00
2023-06-11T01:14:28.911Z,606.00
2023-06-11T01:15:28.925Z,598.00
2023-06-11T01:16:28.991Z,600.00
2023-06-11T01:17:28.997Z,601.00
2023-06-11T01:18:29.036Z,603.00
2023-06-11T01:19:29.147Z,606.00
2023-06-11T01:20:29.112Z,607.00
2023-06-11T01:21:29.155Z,599.00
2023-06-11T01:22:29.151Z,600.00
2023-06-11T01:23:29.251Z,599.00
2023-06-11T01:24:29.246Z,607.00
2023-06-11T01:25:29.337Z,604.00
2023-06-11T01:26:29.289Z,606.00
2023-06-11T01:27:29.365Z,602.00
2023-06-11T01:28:29.388Z,601.00
2023-06-11T01:29:29.388Z,592.00
2023-06-11T01:30:29.443Z,589.00
2023-06-11T01:31:29.542Z,595.00
2023-06-11T01:32:29.588Z,600.00
2023-06-11T01:33:29.565Z,596.00
2023-06-11T01:34:29.587Z,603.00
2023-06-11T01:35:29.648Z,600.00
2023-06-11T01:36:29.661Z,586.00
2023-06-11T01:37:29.696Z,602.00
2023-06-11T01:38:29.803Z,619.00
2023-06-11T01:39:29.796Z,602.00
2023-06-11T01:40:29.901Z,597.00
2023-06-11T01:41:29.881Z,589.00
2023-06-11T01:42:29.905Z,598.00
2023-06-11T01:43:29.926Z,599.00
2023-06-11T01:44:30.001Z,607.00
2023-06-11T01:45:30.051Z,601.00
2023-06-11T01:46:30.100Z,599.00
2023-06-11T01:47:30.110Z,593.00
2023-06-11T01:48:30.130Z,600.00
2023-06-11T01:49:30.171Z,601.00
2023-06-11T01:50:30.208Z,592.00
2023-06-11T01:51:30.249Z,580.00
2023-06-11T01:52:30.338Z,596.00
2023-06-11T01:53:30.306Z,607.00
2023-06-11T01:54:30.375Z,596.00
2023-06-11T01:55:30.415Z,605.00
2023-06-11T01:56:30.438Z,596.00
2023-06-11T01:57:30.510Z,590.00
2023-06-11T01:58:30.542Z,603.00
2023-06-11T01:59:30.537Z,599.00
2023-06-11T02:00:30.588Z,594.00
2023-06-11T02:01:30.719Z,594.00
2023-06-11T02:02:30.732Z,600.00
2023-06-11T02:03:30.853Z,595.00
2023-06-11T02:04:30.746Z,607.00
2023-06-11T02:05:30.820Z,609.00
2023-06-11T02:06:30.865Z,606.00
2023-06-11T02:07:30.864Z,609.00
2023-06-11T02:08:30.910Z,613.00
2023-06-11T02:09:30.985Z,617.00
2023-06-11T02:10:31.023Z,614.00
2023-06-11T02:11:31.100Z,618.00
2023-06-11T02:12:31.107Z,618.00
2023-06-11T02:13:31.164Z,619.00
2023-06-11T02:14:31.189Z,616.00
2023-06-11T02:15:31.230Z,619.00
2023-06-11T02:16:31.366Z,621.00
2023-06-11T02:17:31.355Z,626.00
2023-06-11T02:18:31.360Z,623.00
2023-06-11T02:19:31.401Z,626.00
2023-06-11T02:20:31.464Z,625.00
2023-06-11T02:21:31.500Z,625.00
2023-06-11T02:22:31.517Z,628.00
2023-06-11T02:23:31.596Z,634.00
2023-06-11T02:24:31.596Z,631.00
2023-06-11T02:25:31.645Z,627.00
2023-06-11T02:26:31.676Z,632.00
2023-06-11T02:27:31.751Z,634.00
2023-06-11T02:28:31.763Z,639.00
2023-06-11T02:29:31.825Z,634.00
2023-06-11T02:30:32.004Z,639.00
2023-06-11T02:31:31.957Z,642.00
2023-06-11T02:32:32.036Z,640.00
2023-06-11T02:33:31.968Z,644.00
2023-06-11T02:34:32.027Z,642.00
2023-06-11T02:35:32.078Z,645.00
2023-06-11T02:36:32.103Z,647.00
2023-06-11T02:37:32.141Z,643.00
2023-06-11T02:38:32.217Z,643.00
2023-06-11T02:39:32.259Z,643.00
2023-06-11T02:40:32.272Z,650.00
2023-06-11T02:41:32.328Z,654.00
2023-06-11T02:42:32.376Z,649.00
2023-06-11T02:43:32.413Z,647.00
2023-06-11T02:44:32.459Z,648.00
2023-06-11T02:45:32.496Z,649.00
2023-06-11T02:46:32.617Z,652.00
2023-06-11T02:47:32.625Z,654.00
2023-06-11T02:48:32.635Z,652.00
2023-06-11T02:49:32.683Z,661.00
2023-06-11T02:50:32.704Z,652.00
2023-06-11T02:51:32.749Z,656.00
2023-06-11T02:52:32.781Z,659.00
2023-06-11T02:53:32.844Z,663.00
2023-06-11T02:54:32.884Z,659.00
2023-06-11T02:55:32.912Z,659.00
2023-06-11T02:56:32.954Z,659.00
2023-06-11T02:57:32.975Z,660.00
2023-06-11T02:58:33.064Z,663.00
2023-06-11T02:59:33.089Z,660.00
2023-06-11T03:00:33.121Z,662.00
2023-06-11T03:01:33.206Z,658.00
2023-06-11T03:02:33.215Z,666.00
2023-06-11T03:03:33.296Z,660.00
2023-06-11T03:04:33.286Z,669.00
2023-06-11T03:05:33.324Z,667.00
2023-06-11T03:06:33.377Z,664.00
2023-06-11T03:07:33.403Z,664.00
2023-06-11T03:08:33.466Z,674.00
2023-06-11T03:09:33.554Z,672.00
2023-06-11T03:10:33.561Z,690.00
2023-06-11T03:11:33.571Z,666.00
2023-06-11T03:12:33.609Z,677.00
2023-06-11T03:13:33.756Z,686.00
2023-06-11T03:14:33.702Z,674.00
2023-06-11T03:15:33.804Z,684.00
2023-06-11T03:16:33.927Z,690.00
2023-06-11T03:17:33.875Z,675.00
2023-06-11T03:18:33.916Z,696.00
2023-06-11T03:19:33.938Z,670.00
2023-06-11T03:20:33.989Z,675.00
2023-06-11T03:21:33.992Z,679.00
2023-06-11T03:22:34.101Z,703.00
2023-06-11T03:23:34.111Z,695.00
2023-06-11T03:24:34.167Z,685.00
2023-06-11T03:25:34.178Z,697.00
2023-06-11T03:26:34.219Z,699.00
2023-06-11T03:27:34.299Z,677.00
2023-06-11T03:28:34.330Z,711.00
2023-06-11T03:29:34.420Z,699.00
2023-06-11T03:30:34.414Z,709.00
2023-06-11T03:31:34.501Z,700.00
2023-06-11T03:32:34.581Z,712.00
2023-06-11T03:33:34.494Z,702.00
2023-06-11T03:34:34.568Z,708.00
2023-06-11T03:35:34.602Z,708.00
2023-06-11T03:36:34.644Z,712.00
2023-06-11T03:37:34.707Z,722.00
2023-06-11T03:38:34.782Z,693.00
2023-06-11T03:39:34.807Z,719.00
2023-06-11T03:40:34.860Z,705.00
2023-06-11T03:41:34.895Z,715.00
2023-06-11T03:42:34.928Z,702.00
2023-06-11T03:43:35.089Z,731.00
2023-06-11T03:44:35.121Z,715.00
2023-06-11T03:45:35.097Z,692.00
2023-06-11T03:46:35.165Z,718.00
2023-06-11T03:47:35.190Z,710.00
2023-06-11T03:48:35.223Z,721.00
2023-06-11T03:49:35.278Z,722.00
2023-06-11T03:50:35.300Z,726.00
2023-06-11T03:51:35.380Z,714.00
2023-06-11T03:52:35.427Z,734.00
2023-06-11T03:53:35.436Z,721.00
2023-06-11T03:54:35.494Z,740.00
2023-06-11T03:55:35.551Z,727.00
2023-06-11T03:56:35.574Z,736.00
2023-06-11T03:57:35.646Z,723.00
2023-06-11T03:58:35.656Z,737.00
2023-06-11T03:59:35.749Z,737.00
2023-06-11T04:00:35.768Z,726.00
2023-06-11T04:01:35.892Z,716.00
2023-06-11T04:02:35.909Z,726.00
2023-06-11T04:03:35.924Z,734.00
2023-06-11T04:04:35.980Z,729.00
2023-06-11T04:05:35.975Z,717.00
2023-06-11T04:06:36.048Z,743.00
2023-06-11T04:07:37.017Z,718.00
2023-06-11T04:08:36.095Z,728.00
2023-06-11T04:09:36.141Z,727.00
2023-06-11T04:10:36.200Z,736.00
2023-06-11T04:11:36.283Z,741.00
2023-06-11T04:12:36.260Z,730.00
2023-06-11T04:13:36.399Z,746.00
2023-06-11T04:14:36.364Z,732.00
2023-06-11T04:15:36.398Z,744.00
2023-06-11T04:16:36.633Z,724.00
2023-06-11T04:17:36.499Z,728.00
2023-06-11T04:18:36.586Z,732.00
2023-06-11T04:19:36.594Z,739.00
2023-06-11T04:20:36.648Z,747.00
2023-06-11T04:21:36.695Z,742.00
2023-06-11T04:22:36.736Z,755.00
2023-06-11T04:23:36.789Z,746.00
2023-06-11T04:24:36.837Z,742.00
2023-06-11T04:25:36.852Z,740.00
2023-06-11T04:26:36.939Z,726.00
2023-06-11T04:27:36.915Z,741.00
2023-06-11T04:28:36.951Z,781.00
2023-06-11T04:29:37.001Z,745.00
2023-06-11T04:30:37.079Z,724.00
2023-06-11T04:31:37.131Z,747.00
2023-06-11T04:32:37.199Z,746.00
2023-06-11T04:33:37.192Z,753.00
2023-06-11T04:34:37.245Z,739.00
2023-06-11T04:35:37.278Z,743.00
2023-06-11T04:36:37.328Z,755.00
2023-06-11T04:37:37.407Z,751.00
2023-06-11T04:38:37.474Z,735.00
2023-06-11T04:39:37.475Z,736.00
2023-06-11T04:40:37.591Z,743.00
2023-06-11T04:41:37.610Z,758.00
2023-06-11T04:42:37.582Z,748.00
2023-06-11T04:43:37.676Z,766.00
2023-06-11T04:44:38.529Z,752.00
2023-06-11T04:45:37.751Z,765.00
2023-06-11T04:46:37.826Z,751.00
2023-06-11T04:47:37.818Z,749.00
2023-06-11T04:48:37.859Z,761.00
2023-06-11T04:49:37.930Z,749.00
2023-06-11T04:50:37.919Z,772.00
2023-06-11T04:51:37.977Z,770.00
2023-06-11T04:52:38.010Z,748.00
2023-06-11T04:53:38.095Z,746.00
2023-06-11T04:54:38.130Z,738.00
2023-06-11T04:55:38.164Z,771.00
2023-06-11T04:56:38.290Z,753.00
2023-06-11T04:57:38.248Z,747.00
2023-06-11T04:58:38.301Z,756.00
2023-06-11T04:59:38.339Z,760.00
2023-06-11T05:00:38.363Z,755.00
2023-06-11T05:01:38.833Z,744.00
2023-06-11T05:02:38.538Z,741.00
2023-06-11T05:03:38.671Z,746.00
2023-06-11T05:04:38.542Z,747.00
2023-06-11T05:05:38.608Z,750.00
2023-06-11T05:06:38.657Z,751.00
2023-06-11T05:07:38.656Z,757.00
2023-06-11T05:08:38.701Z,757.00
2023-06-11T05:09:38.734Z,747.00
2023-06-11T05:10:38.908Z,761.00
2023-06-11T05:11:38.838Z,750.00
2023-06-11T05:12:38.858Z,756.00
2023-06-11T05:13:38.926Z,749.00
2023-06-11T05:14:38.947Z,754.00
2023-06-11T05:15:39.020Z,759.00
2023-06-11T05:16:39.107Z,750.00
2023-06-11T05:17:39.091Z,752.00
2023-06-11T05:18:39.079Z,747.00
2023-06-11T05:19:39.155Z,744.00
2023-06-11T05:20:39.158Z,749.00
2023-06-11T05:21:39.216Z,757.00
2023-06-11T05:22:39.232Z,762.00
2023-06-11T05:23:39.329Z,745.00
2023-06-11T05:24:39.307Z,758.00
2023-06-11T05:25:39.321Z,758.00
2023-06-11T05:26:39.450Z,748.00
2023-06-11T05:27:39.415Z,743.00
2023-06-11T05:28:39.473Z,762.00
2023-06-11T05:29:39.470Z,754.00
2023-06-11T05:30:39.494Z,754.00
2023-06-11T05:31:39.577Z,740.00
2023-06-11T05:32:39.599Z,750.00
2023-06-11T05:33:39.631Z,753.00
2023-06-11T05:34:39.681Z,755.00
2023-06-11T05:35:39.690Z,753.00
2023-06-11T05:36:39.725Z,754.00
2023-06-11T05:37:39.789Z,744.00
2023-06-11T05:38:39.793Z,753.00
2023-06-11T05:39:39.841Z,762.00
2023-06-11T05:40:39.861Z,760.00
2023-06-11T05:41:39.936Z,742.00
2023-06-11T05:42:39.935Z,751.00
2023-06-11T05:43:40.047Z,749.00
2023-06-11T05:44:39.972Z,748.00
2023-06-11T05:45:39.998Z,769.00
2023-06-11T05:46:40.121Z,763.00
2023-06-11T05:47:40.233Z,765.00
2023-06-11T05:48:40.085Z,764.00
2023-06-11T05:49:40.104Z,780.00
2023-06-11T05:50:40.147Z,759.00
2023-06-11T05:51:40.191Z,776.00
2023-06-11T05:52:40.230Z,769.00
2023-06-11T05:53:40.236Z,762.00
2023-06-11T05:54:40.258Z,776.00
2023-06-11T05:55:40.313Z,765.00
2023-06-11T05:56:40.320Z,756.00
2023-06-11T05:57:40.365Z,774.00
2023-06-11T05:58:40.452Z,781.00
2023-06-11T05:59:40.454Z,766.00
2023-06-11T06:00:40.692Z,772.00
2023-06-11T06:01:40.493Z,770.00
2023-06-11T06:02:40.576Z,757.00
2023-06-11T06:03:40.973Z,766.00
2023-06-11T06:04:40.668Z,762.00
2023-06-11T06:05:40.606Z,762.00
2023-06-11T06:06:40.678Z,753.00
2023-06-11T06:07:40.640Z,765.00
2023-06-11T06:08:43.843Z,756.00
2023-06-11T06:09:40.672Z,757.00
2023-06-11T06:10:40.664Z,759.00
2023-06-11T06:11:40.689Z,763.00
2023-06-11T06:12:40.676Z,761.00
2023-06-11T06:13:40.667Z,777.00
2023-06-11T06:14:40.607Z,767.00
2023-06-11T06:15:40.702Z,783.00
2023-06-11T06:16:40.734Z,772.00
2023-06-11T06:17:41.671Z,766.00
2023-06-11T06:18:40.625Z,751.00
2023-06-11T06:19:40.605Z,761.00
2023-06-11T06:20:40.588Z,761.00
2023-06-11T06:21:40.553Z,756.00
2023-06-11T06:22:40.559Z,759.00
2023-06-11T06:23:40.638Z,764.00
2023-06-11T06:24:40.547Z,752.00
2023-06-11T06:25:40.633Z,759.00
2023-06-11T06:26:40.570Z,758.00
2023-06-11T06:27:40.539Z,755.00
2023-06-11T06:28:40.542Z,758.00
2023-06-11T06:29:40.556Z,766.00
2023-06-11T06:30:41.140Z,763.00
2023-06-11T06:31:40.645Z,764.00
2023-06-11T06:32:40.603Z,761.00
2023-06-11T06:33:40.530Z,764.00
2023-06-11T06:34:40.479Z,752.00
2023-06-11T06:35:40.508Z,753.00
2023-06-11T06:36:40.494Z,757.00
2023-06-11T06:37:40.472Z,779.00
2023-06-11T06:38:40.452Z,763.00
2023-06-11T06:39:40.539Z,760.00
2023-06-11T06:40:40.569Z,763.00
2023-06-11T06:41:40.586Z,763.00
2023-06-11T06:42:40.586Z,767.00
2023-06-11T06:43:40.593Z,764.00
2023-06-11T06:44:40.663Z,768.00
2023-06-11T06:45:40.618Z,767.00
2023-06-11T06:46:40.603Z,756.00
2023-06-11T06:47:40.723Z,759.00
2023-06-11T06:48:40.726Z,759.00
2023-06-11T06:49:40.641Z,738.00
2023-06-11T06:50:40.647Z,770.00
2023-06-11T06:51:40.651Z,763.00
2023-06-11T06:52:40.638Z,759.00
2023-06-11T06:53:40.677Z,764.00
2023-06-11T06:54:40.688Z,756.00
2023-06-11T06:55:40.654Z,767.00
2023-06-11T06:56:40.676Z,742.00
2023-06-11T06:57:40.666Z,756.00
2023-06-11T06:58:40.709Z,759.00
2023-06-11T06:59:40.696Z,753.00
2023-06-11T07:00:40.714Z,759.00
2023-06-11T07:01:40.815Z,760.00
2023-06-11T07:02:40.789Z,771.00
2023-06-11T07:03:40.729Z,768.00
2023-06-11T07:04:40.765Z,748.00
2023-06-11T07:05:40.769Z,764.00
2023-06-11T07:06:40.751Z,761.00
2023-06-11T07:07:43.376Z,762.00
2023-06-11T07:08:40.746Z,780.00
2023-06-11T07:09:40.730Z,759.00
2023-06-11T07:10:40.782Z,769.00
2023-06-11T07:11:40.687Z,760.00
2023-06-11T07:12:40.755Z,770.00
2023-06-11T07:13:40.752Z,771.00
2023-06-11T07:14:40.701Z,760.00
2023-06-11T07:15:40.796Z,765.00
2023-06-11T07:16:40.753Z,757.00
2023-06-11T07:17:40.751Z,763.00
2023-06-11T07:18:40.721Z,773.00
2023-06-11T07:19:40.652Z,762.00
2023-06-11T07:20:40.730Z,760.00
2023-06-11T07:21:40.638Z,761.00
2023-06-11T07:22:40.663Z,772.00
2023-06-11T07:23:40.652Z,770.00
2023-06-11T07:24:40.624Z,753.00
2023-06-11T07:25:40.626Z,762.00
2023-06-11T07:26:40.626Z,758.00
2023-06-11T07:27:40.571Z,759.00
2023-06-11T07:28:40.613Z,780.00
2023-06-11T07:29:40.615Z,759.00
2023-06-11T07:30:40.583Z,757.00
2023-06-11T07:31:40.595Z,755.00
2023-06-11T07:32:40.621Z,762.00
2023-06-11T07:33:40.558Z,762.00
2023-06-11T07:34:40.595Z,762.00
2023-06-11T07:35:40.578Z,775.00
2023-06-11T07:36:40.559Z,783.00
2023-06-11T07:37:40.528Z,770.00
2023-06-11T07:38:40.522Z,779.00
2023-06-11T07:39:40.546Z,771.00
2023-06-11T07:40:40.533Z,774.00
2023-06-11T07:41:40.545Z,761.00
2023-06-11T07:42:40.518Z,770.00
2023-06-11T07:43:40.485Z,773.00
2023-06-11T07:44:40.506Z,770.00
2023-06-11T07:45:40.478Z,762.00
2023-06-11T07:46:40.510Z,769.00
2023-06-11T07:47:40.635Z,769.00
2023-06-11T07:48:40.499Z,759.00
2023-06-11T07:49:40.504Z,771.00
2023-06-11T07:50:40.432Z,774.00
2023-06-11T07:51:40.451Z,781.00
2023-06-11T07:52:40.459Z,777.00
2023-06-11T07:53:40.459Z,778.00
2023-06-11T07:54:40.436Z,786.00
2023-06-11T07:55:40.434Z,769.00
2023-06-11T07:56:40.433Z,778.00
2023-06-11T07:57:40.444Z,768.00
2023-06-11T07:58:40.382Z,788.00
2023-06-11T07:59:40.388Z,776.00
2023-06-11T08:00:40.406Z,773.00
2023-06-11T08:01:40.401Z,776.00
2023-06-11T08:02:40.551Z,778.00
2023-06-11T08:03:40.387Z,779.00
2023-06-11T08:04:40.347Z,781.00
2023-06-11T08:05:40.495Z,765.00
2023-06-11T08:06:40.338Z,774.00
2023-06-11T08:07:40.355Z,770.00
2023-06-11T08:08:40.315Z,775.00
2023-06-11T08:09:40.318Z,766.00
2023-06-11T08:10:40.325Z,753.00
2023-06-11T08:11:40.334Z,771.00
2023-06-11T08:12:40.391Z,777.00
2023-06-11T08:13:40.308Z,774.00
2023-06-11T08:14:40.289Z,760.00
2023-06-11T08:15:40.302Z,770.00
2023-06-11T08:16:40.346Z,778.00
2023-06-11T08:17:40.291Z,777.00
2023-06-11T08:18:40.275Z,777.00
2023-06-11T08:19:40.323Z,775.00
2023-06-11T08:20:40.252Z,777.00
2023-06-11T08:21:40.239Z,781.00
2023-06-11T08:22:40.259Z,778.00
2023-06-11T08:23:40.371Z,791.00
2023-06-11T08:24:40.226Z,761.00
2023-06-11T08:25:40.210Z,775.00
2023-06-11T08:26:40.217Z,777.00
2023-06-11T08:27:40.269Z,764.00
2023-06-11T08:28:40.198Z,780.00
2023-06-11T08:29:40.195Z,768.00
2023-06-11T08:30:40.176Z,790.00
2023-06-11T08:31:40.230Z,776.00
2023-06-11T08:32:40.224Z,792.00
2023-06-11T08:33:40.143Z,774.00
2023-06-11T08:34:40.191Z,776.00
2023-06-11T08:35:40.138Z,793.00
2023-06-11T08:36:40.158Z,774.00
2023-06-11T08:37:40.131Z,777.00
2023-06-11T08:38:40.117Z,776.00
2023-06-11T08:39:40.128Z,792.00
2023-06-11T08:40:40.111Z,793.00
2023-06-11T08:41:40.097Z,780.00
2023-06-11T08:42:40.082Z,789.00
2023-06-11T08:43:40.100Z,782.00
2023-06-11T08:44:40.056Z,786.00
2023-06-11T08:45:40.040Z,768.00
2023-06-11T08:46:40.183Z,773.00
2023-06-11T08:47:40.106Z,785.00
2023-06-11T08:48:40.006Z,772.00
2023-06-11T08:49:40.032Z,782.00
2023-06-11T08:50:40.041Z,781.00
2023-06-11T08:51:39.989Z,776.00
2023-06-11T08:52:40.037Z,781.00
2023-06-11T08:53:40.168Z,770.00
2023-06-11T08:54:40.220Z,782.00
2023-06-11T08:55:40.234Z,791.00
2023-06-11T08:56:40.343Z,789.00
2023-06-11T08:57:40.349Z,799.00
2023-06-11T08:58:40.447Z,793.00
2023-06-11T08:59:40.491Z,788.00
2023-06-11T09:00:40.531Z,789.00
2023-06-11T09:01:40.614Z,774.00
2023-06-11T09:02:40.679Z,776.00
2023-06-11T09:03:40.808Z,787.00
2023-06-11T09:04:40.751Z,792.00
2023-06-11T09:05:40.827Z,792.00
2023-06-11T09:06:40.934Z,792.00
2023-06-11T09:07:40.929Z,788.00
2023-06-11T09:08:40.976Z,777.00
2023-06-11T09:09:41.047Z,787.00
2023-06-11T09:10:41.092Z,784.00
2023-06-11T09:11:41.175Z,793.00
2023-06-11T09:12:41.259Z,793.00
2023-06-11T09:13:41.396Z,788.00
2023-06-11T09:14:41.325Z,786.00
2023-06-11T09:15:41.408Z,788.00
2023-06-11T09:16:41.729Z,795.00
2023-06-11T09:17:41.570Z,790.00
2023-06-11T09:18:41.605Z,787.00
2023-06-11T09:19:41.637Z,785.00
2023-06-11T09:20:41.699Z,795.00
2023-06-11T09:21:41.794Z,803.00
2023-06-11T09:22:41.864Z,800.00
2023-06-11T09:23:41.960Z,794.00
2023-06-11T09:24:41.961Z,801.00
2023-06-11T09:25:42.063Z,790.00
2023-06-11T09:26:42.078Z,791.00
2023-06-11T09:27:42.102Z,791.00
2023-06-11T09:28:42.184Z,794.00
2023-06-11T09:29:42.199Z,786.00
2023-06-11T09:30:42.320Z,794.00
2023-06-11T09:31:42.353Z,798.00
2023-06-11T09:32:42.565Z,799.00
2023-06-11T09:33:42.462Z,798.00
2023-06-11T09:34:42.540Z,791.00
2023-06-11T09:35:42.592Z,784.00
2023-06-11T09:36:42.658Z,802.00
2023-06-11T09:37:42.682Z,779.00
2023-06-11T09:38:42.772Z,792.00
2023-06-11T09:39:42.810Z,784.00
2023-06-11T09:40:42.837Z,791.00
2023-06-11T09:41:42.940Z,790.00
2023-06-11T09:42:43.060Z,803.00
2023-06-11T09:43:43.025Z,787.00
2023-06-11T09:44:43.096Z,806.00
2023-06-11T09:45:43.214Z,797.00
2023-06-11T09:46:43.217Z,797.00
2023-06-11T09:47:43.339Z,791.00
2023-06-11T09:48:43.318Z,787.00
2023-06-11T09:49:43.383Z,800.00
2023-06-11T09:50:43.462Z,784.00
2023-06-11T09:51:43.509Z,800.00
2023-06-11T09:52:43.593Z,787.00
2023-06-11T09:53:43.650Z,782.00
2023-06-11T09:54:43.700Z,811.00
2023-06-11T09:55:48.515Z,781.00
2023-06-11T09:56:44.721Z,782.00
2023-06-11T09:57:43.727Z,784.00
2023-06-11T09:58:43.703Z,785.00
2023-06-11T09:59:43.715Z,794.00
2023-06-11T10:00:43.725Z,798.00
2023-06-11T10:01:43.829Z,795.00
2023-06-11T10:02:43.843Z,799.00
2023-06-11T10:03:43.857Z,805.00
2023-06-11T10:04:43.714Z,794.00
2023-06-11T10:05:43.770Z,811.00
2023-06-11T10:06:43.833Z,799.00
2023-06-11T10:07:43.881Z,784.00
2023-06-11T10:08:43.929Z,771.00
2023-06-11T10:09:44.045Z,770.00
2023-06-11T10:10:44.040Z,747.00
2023-06-11T10:11:44.095Z,750.00
2023-06-11T10:12:44.161Z,747.00
2023-06-11T10:13:44.208Z,752.00
2023-06-11T10:14:44.225Z,724.00
2023-06-11T10:15:44.377Z,736.00
2023-06-11T10:16:44.378Z,724.00
2023-06-11T10:17:44.446Z,718.00
2023-06-11T10:18:44.541Z,710.00
2023-06-11T10:19:44.525Z,695.00
2023-06-11T10:20:44.557Z,687.00
2023-06-11T10:21:44.666Z,672.00
2023-06-11T10:22:44.672Z,665.00
2023-06-11T10:23:44.760Z,663.00
2023-06-11T10:24:44.756Z,663.00
2023-06-11T10:25:44.797Z,659.00
2023-06-11T10:26:44.899Z,661.00
2023-06-11T10:27:44.902Z,655.00
2023-06-11T10:28:44.982Z,650.00
2023-06-11T10:29:45.000Z,648.00
2023-06-11T10:30:45.072Z,655.00
2023-06-11T10:31:45.097Z,646.00
2023-06-11T10:32:45.168Z,640.00
2023-06-11T10:33:45.238Z,641.00
2023-06-11T10:34:45.350Z,632.00
2023-06-11T10:35:45.266Z,628.00
2023-06-11T10:36:45.337Z,629.00
2023-06-11T10:37:45.388Z,622.00
2023-06-11T10:38:45.418Z,623.00
2023-06-11T10:39:45.454Z,623.00
2023-06-11T10:40:45.517Z,624.00
2023-06-11T10:41:45.568Z,612.00
2023-06-11T10:42:45.620Z,615.00
2023-06-11T10:43:45.666Z,618.00
2023-06-11T10:44:45.674Z,613.00
2023-06-11T10:45:47.808Z,614.00
2023-06-11T10:46:45.733Z,614.00
2023-06-11T10:47:45.761Z,612.00
2023-06-11T10:48:45.703Z,607.00
2023-06-11T10:49:45.677Z,611.00
2023-06-11T10:50:45.683Z,600.00
2023-06-11T10:51:45.684Z,599.00
2023-06-11T10:52:45.668Z,603.00
2023-06-11T10:53:45.658Z,593.00
2023-06-11T10:54:45.630Z,597.00
2023-06-11T10:55:45.675Z,594.00
2023-06-11T10:56:45.677Z,592.00
2023-06-11T10:57:45.672Z,589.00
2023-06-11T10:58:45.623Z,589.00
2023-06-11T10:59:45.686Z,582.00
2023-06-11T11:00:45.623Z,587.00
2023-06-11T11:01:45.693Z,582.00
2023-06-11T11:02:45.696Z,579.00
2023-06-11T11:03:45.719Z,574.00
2023-06-11T11:04:45.571Z,579.00
2023-06-11T11:05:45.556Z,570.00
2023-06-11T11:06:45.581Z,571.00
2023-06-11T11:07:45.633Z,573.00
2023-06-11T11:08:45.569Z,567.00
2023-06-11T11:09:45.578Z,568.00
2023-06-11T11:10:45.567Z,567.00
2023-06-11T11:11:45.569Z,564.00
2023-06-11T11:12:45.529Z,565.00
2023-06-11T11:13:45.536Z,567.00
2023-06-11T11:14:45.498Z,564.00
2023-06-11T11:15:45.494Z,561.00
2023-06-11T11:16:45.528Z,558.00
2023-06-11T11:17:45.570Z,561.00
2023-06-11T11:18:45.598Z,556.00
2023-06-11T11:19:45.600Z,556.00
2023-06-11T11:20:45.629Z,560.00
2023-06-11T11:21:45.690Z,564.00
2023-06-11T11:22:45.730Z,555.00
2023-06-11T11:23:45.883Z,552.00
2023-06-11T11:24:45.757Z,546.00
2023-06-11T11:25:45.821Z,546.00
2023-06-11T11:26:45.872Z,544.00
2023-06-11T11:27:45.878Z,548.00
2023-06-11T11:28:45.905Z,547.00
2023-06-11T11:29:45.934Z,548.00
2023-06-11T11:30:45.936Z,546.00
2023-06-11T11:31:46.052Z,539.00
2023-06-11T11:32:46.165Z,540.00
2023-06-11T11:33:46.044Z,540.00
2023-06-11T11:34:46.044Z,543.00
2023-06-11T11:35:46.074Z,546.00
2023-06-11T11:36:46.130Z,547.00
2023-06-11T11:37:46.177Z,548.00
2023-06-11T11:38:46.186Z,547.00
2023-06-11T11:39:46.201Z,542.00
2023-06-11T11:40:46.316Z,543.00
2023-06-11T11:41:46.298Z,539.00
2023-06-11T11:42:46.309Z,543.00
2023-06-11T11:43:46.337Z,539.00
2023-06-11T11:44:46.373Z,540.00
2023-06-11T11:45:46.417Z,532.00
2023-06-11T11:46:46.479Z,536.00
2023-06-11T11:47:46.521Z,537.00
2023-06-11T11:48:46.481Z,526.00
2023-06-11T11:49:46.548Z,533.00
2023-06-11T11:50:46.569Z,529.00
2023-06-11T11:51:46.708Z,522.00
2023-06-11T11:52:46.594Z,523.00
2023-06-11T11:53:46.670Z,528.00
2023-06-11T11:54:46.656Z,529.00
2023-06-11T11:56:46.697Z,535.00
2023-06-11T11:57:46.662Z,532.00
2023-06-11T11:58:46.629Z,531.00
2023-06-11T11:59:46.638Z,534.00
2023-06-11T12:00:46.640Z,533.00
2023-06-11T12:01:46.668Z,530.00
2023-06-11T12:02:46.692Z,529.00
2023-06-11T12:03:46.811Z,526.00
2023-06-11T12:04:46.608Z,527.00
2023-06-11T12:05:46.689Z,527.00
2023-06-11T12:06:46.608Z,525.00
2023-06-11T12:07:46.666Z,526.00
2023-06-11T12:08:46.591Z,524.00
2023-06-11T12:09:46.621Z,527.00
2023-06-11T12:10:46.652Z,522.00
2023-06-11T12:12:03.719Z,523.00
2023-06-11T12:12:47.573Z,523.00
2023-06-11T12:13:46.541Z,525.00
2023-06-11T12:14:46.548Z,527.00
2023-06-11T12:15:46.532Z,525.00
2023-06-11T12:16:46.570Z,529.00
2023-06-11T12:17:46.561Z,531.00
2023-06-11T12:18:46.521Z,528.00
2023-06-11T12:19:46.546Z,523.00
2023-06-11T12:20:46.556Z,525.00
2023-06-11T12:21:48.950Z,520.00
2023-06-11T12:22:46.507Z,530.00
2023-06-11T12:23:46.565Z,522.00
2023-06-11T12:24:46.538Z,525.00
2023-06-11T12:25:46.465Z,524.00
2023-06-11T12:26:46.469Z,517.00
2023-06-11T12:27:46.620Z,522.00
2023-06-11T12:28:46.500Z,525.00
2023-06-11T12:29:46.429Z,517.00